sensor_id;sensor_type;location;lat;lon;timestamp;pressure;altitude;pressure_sealevel;temperature;humidity
48668;BME280;34453;52.198;5.004;2023-03-14T00:00:58;98937.38;;;10.40;100.00
48668;BME280;34453;52.198;5.004;2023-03-14T00:03:24;98936.38;;;10.41;100.00
48668;BME280;34453;52.198;5.004;2023-03-14T00:05:55;98935.31;;;10.35;100.00
48668;BME280;34453;52.198;5.004;2023-03-14T00:08:20;98953.06;;;10.40;100.00
48668;BME280;34453;52.198;5.004;2023-03-14T00:10:46;98946.84;;;10.41;100.00
48668;BME280;34453;52.198;5.004;2023-03-14T00:13:13;98946.56;;;10.35;100.00
48668;BME280;34453;52.198;5.004;2023-03-14T00:15:38;98935.13;;;10.36;100.00
48668;BME280;34453;52.198;5.004;2023-03-14T00:18:04;98936.13;;;10.35;100.00
48668;BME280;34453;52.198;5.004;2023-03-14T00:20:29;98947.34;;;10.29;100.00
48668;BME280;34453;52.198;5.004;2023-03-14T00:22:54;98931.72;;;10.36;100.00
48668;BME280;34453;52.198;5.004;2023-03-14T00:25:20;98942.53;;;10.33;100.00
48668;BME280;34453;52.198;5.004;2023-03-14T00:27:45;98932.69;;;10.35;100.00
48668;BME280;34453;52.198;5.004;2023-03-14T00:30:11;98941.72;;;10.32;100.00
48668;BME280;34453;52.198;5.004;2023-03-14T00:32:36;98933.25;;;10.30;100.00
48668;BME280;34453;52.198;5.004;2023-03-14T00:35:02;98947.47;;;10.28;100.00
48668;BME280;34453;52.198;5.004;2023-03-14T00:37:28;98943.06;;;10.28;100.00
48668;BME280;34453;52.198;5.004;2023-03-14T00:39:54;98945.03;;;10.26;100.00
48668;BME280;34453;52.198;5.004;2023-03-14T00:42:20;98937.38;;;10.25;100.00
48668;BME280;34453;52.198;5.004;2023-03-14T00:44:45;98937.59;;;10.23;100.00
48668;BME280;34453;52.198;5.004;2023-03-14T00:47:10;98928.94;;;10.23;100.00
48668;BME280;34453;52.198;5.004;2023-03-14T00:49:36;98920.25;;;10.22;100.00
48668;BME280;34453;52.198;5.004;2023-03-14T00:52:01;98929.47;;;10.18;100.00
48668;BME280;34453;52.198;5.004;2023-03-14T00:54:27;98957.63;;;10.16;100.00
48668;BME280;34453;52.198;5.004;2023-03-14T00:56:52;98953.75;;;9.97;100.00
48668;BME280;34453;52.198;5.004;2023-03-14T00:59:18;98962.31;;;9.91;100.00
48668;BME280;34453;52.198;5.004;2023-03-14T01:01:43;98941.00;;;9.87;100.00
48668;BME280;34453;52.198;5.004;2023-03-14T01:04:10;98949.25;;;9.91;100.00
48668;BME280;34453;52.198;5.004;2023-03-14T01:06:35;98945.03;;;9.90;100.00
48668;BME280;34453;52.198;5.004;2023-03-14T01:09:01;98938.09;;;9.82;100.00
48668;BME280;34453;52.198;5.004;2023-03-14T01:11:29;98958.03;;;9.83;100.00
48668;BME280;34453;52.198;5.004;2023-03-14T01:13:55;98961.19;;;9.79;100.00
48668;BME280;34453;52.198;5.004;2023-03-14T01:16:22;98960.56;;;9.62;100.00
48668;BME280;34453;52.198;5.004;2023-03-14T01:18:48;98961.63;;;9.38;100.00
48668;BME280;34453;52.198;5.004;2023-03-14T01:21:20;98961.09;;;9.27;100.00
48668;BME280;34453;52.198;5.004;2023-03-14T01:23:46;98972.22;;;9.21;100.00
48668;BME280;34453;52.198;5.004;2023-03-14T01:26:15;98970.50;;;9.13;100.00
48668;BME280;34453;52.198;5.004;2023-03-14T01:28:41;98982.94;;;9.11;100.00
48668;BME280;34453;52.198;5.004;2023-03-14T01:31:08;98978.50;;;9.12;100.00
48668;BME280;34453;52.198;5.004;2023-03-14T01:33:35;98966.09;;;9.14;100.00
48668;BME280;34453;52.198;5.004;2023-03-14T01:36:02;98974.84;;;9.21;100.00
48668;BME280;34453;52.198;5.004;2023-03-14T01:38:31;98956.22;;;9.24;100.00
48668;BME280;34453;52.198;5.004;2023-03-14T01:40:58;98959.91;;;9.30;100.00
48668;BME280;34453;52.198;5.004;2023-03-14T01:43:24;98958.84;;;9.39;100.00
48668;BME280;34453;52.198;5.004;2023-03-14T01:46:21;98974.75;;;9.44;100.00
48668;BME280;34453;52.198;5.004;2023-03-14T01:48:52;98951.28;;;9.44;100.00
48668;BME280;34453;52.198;5.004;2023-03-14T01:51:41;98955.69;;;9.44;100.00
48668;BME280;34453;52.198;5.004;2023-03-14T01:54:12;98952.28;;;9.43;100.00
48668;BME280;34453;52.198;5.004;2023-03-14T01:56:41;98962.19;;;9.48;100.00
48668;BME280;34453;52.198;5.004;2023-03-14T01:59:09;98954.69;;;9.45;100.00
48668;BME280;34453;52.198;5.004;2023-03-14T02:01:36;98931.03;;;9.46;100.00
48668;BME280;34453;52.198;5.004;2023-03-14T02:04:05;98951.28;;;9.44;100.00
48668;BME280;34453;52.198;5.004;2023-03-14T02:06:38;98946.59;;;9.40;100.00
48668;BME280;34453;52.198;5.004;2023-03-14T02:09:05;98932.56;;;9.41;100.00
48668;BME280;34453;52.198;5.004;2023-03-14T02:11:31;98929.97;;;9.41;100.00
48668;BME280;34453;52.198;5.004;2023-03-14T02:13:57;98934.19;;;9.42;100.00
48668;BME280;34453;52.198;5.004;2023-03-14T02:16:24;98909.72;;;9.43;100.00
48668;BME280;34453;52.198;5.004;2023-03-14T02:18:49;98908.72;;;9.44;100.00
48668;BME280;34453;52.198;5.004;2023-03-14T02:23:58;98912.59;;;9.48;100.00
48668;BME280;34453;52.198;5.004;2023-03-14T02:26:38;98916.00;;;9.48;100.00
48668;BME280;34453;52.198;5.004;2023-03-14T02:29:05;98913.38;;;9.48;100.00
48668;BME280;34453;52.198;5.004;2023-03-14T02:31:31;98909.59;;;9.51;100.00
48668;BME280;34453;52.198;5.004;2023-03-14T02:33:58;98896.47;;;9.44;100.00
48668;BME280;34453;52.198;5.004;2023-03-14T02:36:25;98906.44;;;9.55;100.00
48668;BME280;34453;52.198;5.004;2023-03-14T02:39:10;98896.75;;;9.49;100.00
48668;BME280;34453;52.198;5.004;2023-03-14T02:41:38;98895.13;;;9.48;100.00
48668;BME280;34453;52.198;5.004;2023-03-14T02:44:04;98912.75;;;9.46;100.00
48668;BME280;34453;52.198;5.004;2023-03-14T02:46:29;98916.91;;;9.41;100.00
48668;BME280;34453;52.198;5.004;2023-03-14T02:49:02;98898.19;;;9.37;100.00
48668;BME280;34453;52.198;5.004;2023-03-14T02:51:28;98891.53;;;9.34;100.00
48668;BME280;34453;52.198;5.004;2023-03-14T02:53:54;98892.16;;;9.37;100.00
48668;BME280;34453;52.198;5.004;2023-03-14T02:56:20;98890.91;;;9.32;100.00
48668;BME280;34453;52.198;5.004;2023-03-14T02:58:45;98883.25;;;9.31;100.00
48668;BME280;34453;52.198;5.004;2023-03-14T03:01:11;98895.09;;;9.33;100.00
48668;BME280;34453;52.198;5.004;2023-03-14T03:03:36;98890.09;;;9.32;100.00
48668;BME280;34453;52.198;5.004;2023-03-14T03:06:02;98901.50;;;9.31;100.00
48668;BME280;34453;52.198;5.004;2023-03-14T03:08:28;98877.75;;;9.26;100.00
48668;BME280;34453;52.198;5.004;2023-03-14T03:10:54;98879.28;;;9.20;100.00
48668;BME280;34453;52.198;5.004;2023-03-14T03:13:21;98881.88;;;9.20;100.00
48668;BME280;34453;52.198;5.004;2023-03-14T03:15:46;98889.16;;;9.25;100.00
48668;BME280;34453;52.198;5.004;2023-03-14T03:18:12;98884.31;;;9.22;100.00
48668;BME280;34453;52.198;5.004;2023-03-14T03:20:38;98879.81;;;9.16;100.00
48668;BME280;34453;52.198;5.004;2023-03-14T03:23:03;98872.91;;;9.08;100.00
48668;BME280;34453;52.198;5.004;2023-03-14T03:25:28;98880.91;;;9.06;100.00
48668;BME280;34453;52.198;5.004;2023-03-14T03:27:54;98897.34;;;9.07;100.00
48668;BME280;34453;52.198;5.004;2023-03-14T03:30:20;98882.53;;;9.07;100.00
48668;BME280;34453;52.198;5.004;2023-03-14T03:32:46;98886.31;;;9.05;100.00
48668;BME280;34453;52.198;5.004;2023-03-14T03:35:11;98885.78;;;9.09;100.00
48668;BME280;34453;52.198;5.004;2023-03-14T03:37:38;98897.81;;;9.10;100.00
48668;BME280;34453;52.198;5.004;2023-03-14T03:40:04;98878.75;;;9.10;100.00
48668;BME280;34453;52.198;5.004;2023-03-14T03:42:31;98879.81;;;9.16;100.00
48668;BME280;34453;52.198;5.004;2023-03-14T03:44:56;98871.00;;;9.17;100.00
48668;BME280;34453;52.198;5.004;2023-03-14T03:47:22;98869.38;;;9.16;100.00
48668;BME280;34453;52.198;5.004;2023-03-14T03:49:47;98875.69;;;9.21;100.00
48668;BME280;34453;52.198;5.004;2023-03-14T03:52:13;98872.28;;;9.21;100.00
48668;BME280;34453;52.198;5.004;2023-03-14T03:54:38;98875.16;;;9.26;100.00
48668;BME280;34453;52.198;5.004;2023-03-14T03:57:03;98864.34;;;9.29;100.00
48668;BME280;34453;52.198;5.004;2023-03-14T03:59:29;98871.19;;;9.30;100.00
48668;BME280;34453;52.198;5.004;2023-03-14T04:01:54;98879.66;;;9.32;100.00
48668;BME280;34453;52.198;5.004;2023-03-14T04:04:20;98870.03;;;9.32;100.00
48668;BME280;34453;52.198;5.004;2023-03-14T04:06:46;98867.66;;;9.38;100.00
48668;BME280;34453;52.198;5.004;2023-03-14T04:09:11;98868.47;;;9.38;100.00
48668;BME280;34453;52.198;5.004;2023-03-14T04:11:37;98874.16;;;9.42;100.00
48668;BME280;34453;52.198;5.004;2023-03-14T04:14:04;98872.97;;;9.44;100.00
48668;BME280;34453;52.198;5.004;2023-03-14T04:16:30;98858.66;;;9.40;100.00
48668;BME280;34453;52.198;5.004;2023-03-14T04:18:56;98870.56;;;9.43;100.00
48668;BME280;34453;52.198;5.004;2023-03-14T04:21:22;98878.38;;;9.43;100.00
48668;BME280;34453;52.198;5.004;2023-03-14T04:23:47;98871.00;;;9.46;100.00
48668;BME280;34453;52.198;5.004;2023-03-14T04:26:13;98855.97;;;9.48;100.00
48668;BME280;34453;52.198;5.004;2023-03-14T04:28:38;98860.53;;;9.46;100.00
48668;BME280;34453;52.198;5.004;2023-03-14T04:31:16;98868.03;;;9.49;100.00
48668;BME280;34453;52.198;5.004;2023-03-14T04:33:41;98856.50;;;9.44;100.00
48668;BME280;34453;52.198;5.004;2023-03-14T04:36:08;98871.00;;;9.46;100.00
48668;BME280;34453;52.198;5.004;2023-03-14T04:38:34;98871.16;;;9.45;100.00
48668;BME280;34453;52.198;5.004;2023-03-14T04:41:00;98877.75;;;9.41;100.00
48668;BME280;34453;52.198;5.004;2023-03-14T04:43:26;98878.66;;;9.33;100.00
48668;BME280;34453;52.198;5.004;2023-03-14T04:45:53;98869.22;;;9.17;100.00
48668;BME280;34453;52.198;5.004;2023-03-14T04:48:19;98877.84;;;9.03;100.00
48668;BME280;34453;52.198;5.004;2023-03-14T04:50:46;98902.03;;;8.97;100.00
48668;BME280;34453;52.198;5.004;2023-03-14T04:53:11;98899.06;;;8.85;100.00
48668;BME280;34453;52.198;5.004;2023-03-14T04:55:36;98903.00;;;8.81;100.00
48668;BME280;34453;52.198;5.004;2023-03-14T04:58:02;98903.34;;;8.78;100.00
48668;BME280;34453;52.198;5.004;2023-03-14T05:00:27;98901.72;;;8.77;100.00
48668;BME280;34453;52.198;5.004;2023-03-14T05:02:53;98900.09;;;8.76;100.00
48668;BME280;34453;52.198;5.004;2023-03-14T05:05:19;98904.34;;;8.77;100.00
48668;BME280;34453;52.198;5.004;2023-03-14T05:07:44;98922.31;;;8.71;100.00
48668;BME280;34453;52.198;5.004;2023-03-14T05:10:10;98901.44;;;8.71;100.00
48668;BME280;34453;52.198;5.004;2023-03-14T05:12:35;98888.75;;;8.68;100.00
48668;BME280;34453;52.198;5.004;2023-03-14T05:15:01;98891.03;;;8.71;100.00
48668;BME280;34453;52.198;5.004;2023-03-14T05:17:26;98882.38;;;8.71;100.00
48668;BME280;34453;52.198;5.004;2023-03-14T05:19:52;98890.72;;;8.66;100.00
48668;BME280;34453;52.198;5.004;2023-03-14T05:22:18;98884.34;;;8.69;100.00
48668;BME280;34453;52.198;5.004;2023-03-14T05:24:43;98867.25;;;8.66;100.00
48668;BME280;34453;52.198;5.004;2023-03-14T05:27:09;98887.16;;;8.67;100.00
48668;BME280;34453;52.198;5.004;2023-03-14T05:29:34;98872.31;;;8.68;100.00
48668;BME280;34453;52.198;5.004;2023-03-14T05:32:00;98875.06;;;8.66;100.00
48668;BME280;34453;52.198;5.004;2023-03-14T05:34:25;98877.69;;;8.66;100.00
48668;BME280;34453;52.198;5.004;2023-03-14T05:36:51;98876.88;;;8.66;100.00
48668;BME280;34453;52.198;5.004;2023-03-14T05:39:16;98881.94;;;8.67;100.00
48668;BME280;34453;52.198;5.004;2023-03-14T05:41:41;98873.09;;;8.68;100.00
48668;BME280;34453;52.198;5.004;2023-03-14T05:44:07;98883.44;;;8.62;100.00
48668;BME280;34453;52.198;5.004;2023-03-14T05:46:32;98889.91;;;8.66;100.00
48668;BME280;34453;52.198;5.004;2023-03-14T05:48:58;98887.47;;;8.64;100.00
48668;BME280;34453;52.198;5.004;2023-03-14T05:51:24;98887.47;;;8.64;100.00
48668;BME280;34453;52.198;5.004;2023-03-14T05:53:50;98893.06;;;8.61;100.00
48668;BME280;34453;52.198;5.004;2023-03-14T05:56:15;98899.53;;;8.65;100.00
48668;BME280;34453;52.198;5.004;2023-03-14T05:58:41;98922.00;;;8.66;100.00
48668;BME280;34453;52.198;5.004;2023-03-14T06:01:07;98935.25;;;8.65;100.00
48668;BME280;34453;52.198;5.004;2023-03-14T06:03:33;98946.69;;;8.56;100.00
48668;BME280;34453;52.198;5.004;2023-03-14T06:05:58;98950.53;;;8.37;100.00
48668;BME280;34453;52.198;5.004;2023-03-14T06:08:24;98961.09;;;8.12;100.00
48668;BME280;34453;52.198;5.004;2023-03-14T06:10:50;98969.63;;;7.98;100.00
48668;BME280;34453;52.198;5.004;2023-03-14T06:13:16;98981.25;;;7.87;100.00
48668;BME280;34453;52.198;5.004;2023-03-14T06:15:41;98974.44;;;7.78;100.00
48668;BME280;34453;52.198;5.004;2023-03-14T06:18:07;98994.47;;;7.69;100.00
48668;BME280;34453;52.198;5.004;2023-03-14T06:20:32;99000.50;;;7.61;100.00
48668;BME280;34453;52.198;5.004;2023-03-14T06:22:59;99001.97;;;7.56;100.00
48668;BME280;34453;52.198;5.004;2023-03-14T06:25:24;99012.88;;;7.59;100.00
48668;BME280;34453;52.198;5.004;2023-03-14T06:27:49;99022.50;;;7.51;100.00
48668;BME280;34453;52.198;5.004;2023-03-14T06:30:15;99022.84;;;7.47;100.00
48668;BME280;34453;52.198;5.004;2023-03-14T06:32:41;99040.09;;;7.40;100.00
48668;BME280;34453;52.198;5.004;2023-03-14T06:35:07;99044.94;;;7.35;100.00
48668;BME280;34453;52.198;5.004;2023-03-14T06:37:32;99046.41;;;7.38;100.00
48668;BME280;34453;52.198;5.004;2023-03-14T06:39:57;99047.91;;;7.40;100.00
48668;BME280;34453;52.198;5.004;2023-03-14T06:42:23;99057.00;;;7.28;100.00
48668;BME280;34453;52.198;5.004;2023-03-14T06:44:48;99076.34;;;7.34;100.00
48668;BME280;34453;52.198;5.004;2023-03-14T06:47:14;99075.53;;;7.33;100.00
48668;BME280;34453;52.198;5.004;2023-03-14T06:49:39;99089.50;;;7.24;100.00
48668;BME280;34453;52.198;5.004;2023-03-14T06:52:04;99092.44;;;7.21;100.00
48668;BME280;34453;52.198;5.004;2023-03-14T06:54:30;99092.28;;;7.14;100.00
48668;BME280;34453;52.198;5.004;2023-03-14T06:56:55;99106.25;;;7.13;100.00
48668;BME280;34453;52.198;5.004;2023-03-14T06:59:21;99118.09;;;7.16;100.00
48668;BME280;34453;52.198;5.004;2023-03-14T07:01:46;99113.88;;;7.15;100.00
48668;BME280;34453;52.198;5.004;2023-03-14T07:04:13;99133.56;;;7.17;100.00
48668;BME280;34453;52.198;5.004;2023-03-14T07:06:39;99127.88;;;7.14;100.00
48668;BME280;34453;52.198;5.004;2023-03-14T07:09:05;99132.06;;;7.06;100.00
48668;BME280;34453;52.198;5.004;2023-03-14T07:11:31;99131.78;;;7.10;100.00
48668;BME280;34453;52.198;5.004;2023-03-14T07:13:57;99139.41;;;7.11;100.00
48668;BME280;34453;52.198;5.004;2023-03-14T07:16:22;99165.25;;;7.13;100.00
48668;BME280;34453;52.198;5.004;2023-03-14T07:18:47;99184.25;;;7.13;100.00
48668;BME280;34453;52.198;5.004;2023-03-14T07:21:14;99192.88;;;7.05;100.00
48668;BME280;34453;52.198;5.004;2023-03-14T07:23:39;99216.91;;;6.99;100.00
48668;BME280;34453;52.198;5.004;2023-03-14T07:26:05;99235.09;;;6.99;100.00
48668;BME280;34453;52.198;5.004;2023-03-14T07:28:31;99237.97;;;6.88;100.00
48668;BME280;34453;52.198;5.004;2023-03-14T07:30:56;99242.38;;;6.88;100.00
48668;BME280;34453;52.198;5.004;2023-03-14T07:33:22;99235.84;;;6.83;100.00
48668;BME280;34453;52.198;5.004;2023-03-14T07:35:48;99259.44;;;6.90;100.00
48668;BME280;34453;52.198;5.004;2023-03-14T07:38:14;99274.91;;;6.92;100.00
48668;BME280;34453;52.198;5.004;2023-03-14T07:40:40;99277.97;;;6.95;100.00
48668;BME280;34453;52.198;5.004;2023-03-14T07:43:05;99279.25;;;6.91;100.00
48668;BME280;34453;52.198;5.004;2023-03-14T07:45:31;99291.31;;;6.92;100.00
48668;BME280;34453;52.198;5.004;2023-03-14T07:47:57;99294.84;;;6.91;100.00
48668;BME280;34453;52.198;5.004;2023-03-14T07:50:24;99306.69;;;6.85;100.00
48668;BME280;34453;52.198;5.004;2023-03-14T07:52:50;99332.47;;;6.53;100.00
48668;BME280;34453;52.198;5.004;2023-03-14T07:55:15;99356.03;;;6.15;100.00
48668;BME280;34453;52.198;5.004;2023-03-14T07:57:40;99359.50;;;5.88;100.00
48668;BME280;34453;52.198;5.004;2023-03-14T08:00:08;99383.97;;;5.86;100.00
48668;BME280;34453;52.198;5.004;2023-03-14T08:02:35;99407.34;;;5.86;100.00
48668;BME280;34453;52.198;5.004;2023-03-14T08:05:02;99419.94;;;5.80;100.00
48668;BME280;34453;52.198;5.004;2023-03-14T08:07:28;99427.13;;;5.87;100.00
48668;BME280;34453;52.198;5.004;2023-03-14T08:09:53;99431.25;;;5.79;100.00
48668;BME280;34453;52.198;5.004;2023-03-14T08:12:19;99441.50;;;5.81;100.00
48668;BME280;34453;52.198;5.004;2023-03-14T08:14:44;99451.59;;;5.84;100.00
48668;BME280;34453;52.198;5.004;2023-03-14T08:17:09;99456.78;;;5.84;100.00
48668;BME280;34453;52.198;5.004;2023-03-14T08:19:35;99481.63;;;5.87;100.00
48668;BME280;34453;52.198;5.004;2023-03-14T08:22:00;99487.41;;;5.80;100.00
48668;BME280;34453;52.198;5.004;2023-03-14T08:24:26;99492.50;;;5.72;100.00
48668;BME280;34453;52.198;5.004;2023-03-14T08:26:51;99507.50;;;5.78;100.00
48668;BME280;34453;52.198;5.004;2023-03-14T08:29:17;99514.72;;;5.94;100.00
48668;BME280;34453;52.198;5.004;2023-03-14T08:31:42;99524.53;;;6.00;100.00
48668;BME280;34453;52.198;5.004;2023-03-14T08:34:07;99534.28;;;6.16;100.00
48668;BME280;34453;52.198;5.004;2023-03-14T08:36:33;99545.25;;;6.10;100.00
48668;BME280;34453;52.198;5.004;2023-03-14T08:38:59;99550.09;;;6.23;100.00
48668;BME280;34453;52.198;5.004;2023-03-14T08:41:24;99565.69;;;6.23;100.00
48668;BME280;34453;52.198;5.004;2023-03-14T08:43:50;99572.63;;;6.32;100.00
48668;BME280;34453;52.198;5.004;2023-03-14T08:46:15;99571.81;;;6.32;100.00
48668;BME280;34453;52.198;5.004;2023-03-14T08:48:41;99583.47;;;6.18;100.00
48668;BME280;34453;52.198;5.004;2023-03-14T08:51:12;99591.69;;;6.13;100.00
48668;BME280;34453;52.198;5.004;2023-03-14T08:53:40;99601.16;;;6.05;100.00
48668;BME280;34453;52.198;5.004;2023-03-14T08:56:07;99625.84;;;6.18;100.00
48668;BME280;34453;52.198;5.004;2023-03-14T08:58:35;99624.88;;;6.19;100.00
48668;BME280;34453;52.198;5.004;2023-03-14T09:01:02;99631.06;;;6.18;100.00
48668;BME280;34453;52.198;5.004;2023-03-14T09:03:27;99634.22;;;6.12;100.00
48668;BME280;34453;52.198;5.004;2023-03-14T09:05:53;99636.44;;;6.07;100.00
48668;BME280;34453;52.198;5.004;2023-03-14T09:08:19;99654.00;;;6.13;100.00
48668;BME280;34453;52.198;5.004;2023-03-14T09:10:44;99661.63;;;6.25;100.00
48668;BME280;34453;52.198;5.004;2023-03-14T09:13:10;99669.84;;;6.30;100.00
48668;BME280;34453;52.198;5.004;2023-03-14T09:15:35;99680.22;;;6.30;100.00
48668;BME280;34453;52.198;5.004;2023-03-14T09:18:01;99682.41;;;6.25;100.00
48668;BME280;34453;52.198;5.004;2023-03-14T09:20:27;99695.25;;;6.36;100.00
48668;BME280;34453;52.198;5.004;2023-03-14T09:22:52;99703.06;;;6.36;100.00
48668;BME280;34453;52.198;5.004;2023-03-14T09:25:17;99711.09;;;6.42;100.00
48668;BME280;34453;52.198;5.004;2023-03-14T09:27:43;99720.63;;;6.52;100.00
48668;BME280;34453;52.198;5.004;2023-03-14T09:30:09;99731.03;;;6.52;100.00
48668;BME280;34453;52.198;5.004;2023-03-14T09:32:34;99733.63;;;6.52;100.00
48668;BME280;34453;52.198;5.004;2023-03-14T09:35:00;99743.84;;;6.53;100.00
48668;BME280;34453;52.198;5.004;2023-03-14T09:37:25;99750.97;;;6.51;100.00
48668;BME280;34453;52.198;5.004;2023-03-14T09:39:51;99749.34;;;6.50;100.00
48668;BME280;34453;52.198;5.004;2023-03-14T09:42:18;99774.78;;;6.56;100.00
48668;BME280;34453;52.198;5.004;2023-03-14T09:44:59;99775.88;;;6.54;100.00
48668;BME280;34453;52.198;5.004;2023-03-14T09:47:26;99796.13;;;6.50;100.00
48668;BME280;34453;52.198;5.004;2023-03-14T09:49:53;99804.59;;;6.52;100.00
48668;BME280;34453;52.198;5.004;2023-03-14T09:52:22;99817.47;;;6.54;100.00
48668;BME280;34453;52.198;5.004;2023-03-14T09:55:02;99838.00;;;6.47;100.00
48668;BME280;34453;52.198;5.004;2023-03-14T09:57:28;99838.53;;;6.21;100.00
48668;BME280;34453;52.198;5.004;2023-03-14T09:59:58;99842.09;;;6.11;100.00
48668;BME280;34453;52.198;5.004;2023-03-14T10:02:28;99848.78;;;6.13;100.00
48668;BME280;34453;52.198;5.004;2023-03-14T10:04:57;99848.78;;;6.13;100.00
48668;BME280;34453;52.198;5.004;2023-03-14T10:07:28;99857.13;;;6.27;100.00
48668;BME280;34453;52.198;5.004;2023-03-14T10:09:54;99872.97;;;6.33;100.00
48668;BME280;34453;52.198;5.004;2023-03-14T10:12:30;99875.88;;;6.50;100.00
48668;BME280;34453;52.198;5.004;2023-03-14T10:14:56;99876.81;;;6.58;100.00
48668;BME280;34453;52.198;5.004;2023-03-14T10:17:21;99885.00;;;6.63;100.00
48668;BME280;34453;52.198;5.004;2023-03-14T10:19:52;99891.81;;;6.84;100.00
48668;BME280;34453;52.198;5.004;2023-03-14T10:22:19;99894.25;;;7.05;100.00
48668;BME280;34453;52.198;5.004;2023-03-14T10:24:46;99910.19;;;7.30;100.00
48668;BME280;34453;52.198;5.004;2023-03-14T10:27:42;99938.63;;;7.31;100.00
48668;BME280;34453;52.198;5.004;2023-03-14T10:30:47;99941.69;;;7.17;100.00
48668;BME280;34453;52.198;5.004;2023-03-14T10:35:43;99963.25;;;6.80;100.00
48668;BME280;34453;52.198;5.004;2023-03-14T10:38:16;99968.47;;;6.60;100.00
48668;BME280;34453;52.198;5.004;2023-03-14T10:40:47;99980.63;;;6.50;100.00
48668;BME280;34453;52.198;5.004;2023-03-14T10:43:23;99984.06;;;6.60;100.00
48668;BME280;34453;52.198;5.004;2023-03-14T10:46:01;99992.81;;;6.79;100.00
48668;BME280;34453;52.198;5.004;2023-03-14T10:48:38;100000.88;;;6.85;100.00
48668;BME280;34453;52.198;5.004;2023-03-14T10:56:07;100027.63;;;7.92;100.00
48668;BME280;34453;52.198;5.004;2023-03-14T10:58:37;100027.03;;;7.98;100.00
48668;BME280;34453;52.198;5.004;2023-03-14T11:01:47;100048.59;;;8.27;100.00
48668;BME280;34453;52.198;5.004;2023-03-14T11:06:53;100053.53;;;9.38;100.00
48668;BME280;34453;52.198;5.004;2023-03-14T11:09:28;100066.41;;;9.84;100.00
48668;BME280;34453;52.198;5.004;2023-03-14T11:12:02;100080.44;;;9.57;100.00
48668;BME280;34453;52.198;5.004;2023-03-14T11:14:36;100106.03;;;8.63;100.00
48668;BME280;34453;52.198;5.004;2023-03-14T11:20:26;100113.22;;;8.97;100.00
48668;BME280;34453;52.198;5.004;2023-03-14T11:25:50;100138.97;;;9.28;100.00
48668;BME280;34453;52.198;5.004;2023-03-14T11:28:38;100153.34;;;9.32;100.00
48668;BME280;34453;52.198;5.004;2023-03-14T11:31:17;100162.88;;;9.05;100.00
48668;BME280;34453;52.198;5.004;2023-03-14T11:33:59;100162.78;;;9.69;100.00
48668;BME280;34453;52.198;5.004;2023-03-14T11:36:35;100161.00;;;9.95;100.00
48668;BME280;34453;52.198;5.004;2023-03-14T11:39:03;100169.25;;;10.09;100.00
48668;BME280;34453;52.198;5.004;2023-03-14T11:41:36;100177.63;;;10.39;100.00
48668;BME280;34453;52.198;5.004;2023-03-14T11:44:19;100194.59;;;10.08;100.00
48668;BME280;34453;52.198;5.004;2023-03-14T11:46:52;100195.66;;;9.98;100.00
48668;BME280;34453;52.198;5.004;2023-03-14T11:49:38;100198.16;;;9.81;100.00
48668;BME280;34453;52.198;5.004;2023-03-14T11:52:46;100217.66;;;10.13;100.00
48668;BME280;34453;52.198;5.004;2023-03-14T11:55:31;100215.91;;;9.78;100.00
48668;BME280;34453;52.198;5.004;2023-03-14T12:00:49;100225.53;;;9.23;100.00
48668;BME280;34453;52.198;5.004;2023-03-14T12:03:34;100250.72;;;9.15;100.00
48668;BME280;34453;52.198;5.004;2023-03-14T12:06:16;100247.03;;;9.35;100.00
48668;BME280;34453;52.198;5.004;2023-03-14T12:08:54;100243.63;;;9.52;100.00
48668;BME280;34453;52.198;5.004;2023-03-14T12:13:57;100252.38;;;10.23;100.00
48668;BME280;34453;52.198;5.004;2023-03-14T12:18:48;100263.56;;;10.60;100.00
48668;BME280;34453;52.198;5.004;2023-03-14T12:21:14;100275.81;;;10.59;100.00
48668;BME280;34453;52.198;5.004;2023-03-14T12:28:44;100289.56;;;10.95;100.00
48668;BME280;34453;52.198;5.004;2023-03-14T12:34:02;100297.69;;;11.18;100.00
48668;BME280;34453;52.198;5.004;2023-03-14T12:36:51;100301.59;;;10.80;100.00
48668;BME280;34453;52.198;5.004;2023-03-14T12:42:13;100318.66;;;10.22;100.00
48668;BME280;34453;52.198;5.004;2023-03-14T12:44:46;100324.28;;;10.27;100.00
48668;BME280;34453;52.198;5.004;2023-03-14T12:49:45;100342.53;;;10.89;100.00
48668;BME280;34453;52.198;5.004;2023-03-14T12:52:17;100342.25;;;10.66;100.00
48668;BME280;34453;52.198;5.004;2023-03-14T12:59:51;100368.38;;;8.93;100.00
48668;BME280;34453;52.198;5.004;2023-03-14T13:02:23;100363.94;;;9.41;100.00
48668;BME280;34453;52.198;5.004;2023-03-14T13:05:14;100373.22;;;10.17;100.00
48668;BME280;34453;52.198;5.004;2023-03-14T13:10:22;100384.75;;;10.68;100.00
48668;BME280;34453;52.198;5.004;2023-03-14T13:13:03;100384.16;;;11.35;100.00
48668;BME280;34453;52.198;5.004;2023-03-14T13:15:33;100398.22;;;11.26;100.00
48668;BME280;34453;52.198;5.004;2023-03-14T13:18:18;100406.09;;;9.74;100.00
48668;BME280;34453;52.198;5.004;2023-03-14T13:21:20;100411.66;;;9.61;100.00
48668;BME280;34453;52.198;5.004;2023-03-14T13:24:07;100425.44;;;10.45;100.00
48668;BME280;34453;52.198;5.004;2023-03-14T13:26:44;100434.78;;;9.19;100.00
48668;BME280;34453;52.198;5.004;2023-03-14T13:29:24;100435.34;;;9.12;100.00
48668;BME280;34453;52.198;5.004;2023-03-14T13:31:51;100443.34;;;9.01;100.00
48668;BME280;34453;52.198;5.004;2023-03-14T13:34:18;100437.03;;;9.69;100.00
48668;BME280;34453;52.198;5.004;2023-03-14T13:36:43;100449.91;;;9.80;100.00
48668;BME280;34453;52.198;5.004;2023-03-14T13:39:16;100446.00;;;9.66;100.00
48668;BME280;34453;52.198;5.004;2023-03-14T13:41:42;100454.16;;;9.06;100.00
48668;BME280;34453;52.198;5.004;2023-03-14T13:44:14;100463.34;;;9.20;100.00
48668;BME280;34453;52.198;5.004;2023-03-14T13:46:40;100461.44;;;9.12;100.00
48668;BME280;34453;52.198;5.004;2023-03-14T13:49:11;100479.84;;;9.21;100.00
48668;BME280;34453;52.198;5.004;2023-03-14T13:51:39;100484.06;;;9.69;100.00